createdAt,value
2019-04-22T00:00:32.810Z,9.30
2019-04-22T00:03:02.804Z,9.30
2019-04-22T00:05:52.911Z,9.60
2019-04-22T00:08:24.278Z,9.40
2019-04-22T00:10:54.299Z,9.40
2019-04-22T00:13:29.189Z,9.40
2019-04-22T00:15:47.785Z,9.40
2019-04-22T00:18:36.178Z,9.40
2019-04-22T00:20:52.720Z,9.40
2019-04-22T00:23:23.459Z,9.40
2019-04-22T00:25:59.727Z,9.40
2019-04-22T00:28:21.684Z,9.40
2019-04-22T00:30:53.810Z,9.50
2019-04-22T00:33:29.068Z,9.50
2019-04-22T00:35:54.550Z,9.50
2019-04-22T00:40:56.214Z,9.50
2019-04-22T00:43:24.304Z,9.50
2019-04-22T00:46:11.101Z,9.50
2019-04-22T00:48:30.541Z,9.50
2019-04-22T00:51:04.194Z,9.90
2019-04-22T00:58:41.183Z,9.50
2019-04-22T01:01:09.009Z,9.40
2019-04-22T01:03:44.189Z,9.40
2019-04-22T01:06:13.006Z,9.30
2019-04-22T01:08:50.308Z,9.40
2019-04-22T01:11:14.778Z,9.30
2019-04-22T01:13:42.716Z,9.30
2019-04-22T01:16:13.394Z,9.20
2019-04-22T01:18:38.168Z,9.20
2019-04-22T01:23:34.628Z,9.20
2019-04-22T01:26:08.048Z,9.20
2019-04-22T01:28:34.155Z,9.20
2019-04-22T01:31:01.984Z,9.20
2019-04-22T01:33:32.681Z,9.10
2019-04-22T01:36:17.606Z,9.10
2019-04-22T01:38:49.958Z,9.00
2019-04-22T01:41:23.471Z,8.90
2019-04-22T01:44:00.615Z,8.90
2019-04-22T01:46:16.302Z,8.90
2019-04-22T01:48:52.452Z,8.90
2019-04-22T01:51:26.779Z,8.90
2019-04-22T01:53:50.422Z,8.90
2019-04-22T01:56:24.192Z,8.90
2019-04-22T01:58:38.074Z,8.80
2019-04-22T02:01:22.578Z,8.80
2019-04-22T02:03:46.738Z,8.80
2019-04-22T02:06:15.714Z,8.80
2019-04-22T02:11:19.417Z,8.70
2019-04-22T02:13:49.525Z,8.70
2019-04-22T02:16:14.552Z,8.70
2019-04-22T02:18:44.955Z,8.70
2019-04-22T02:21:13.818Z,8.70
2019-04-22T02:28:56.449Z,8.70
2019-04-22T02:31:36.088Z,8.60
2019-04-22T02:39:00.130Z,8.60
2019-04-22T02:46:50.109Z,8.50
2019-04-22T02:51:22.219Z,8.50
2019-04-22T02:56:27.445Z,8.40
2019-04-22T03:01:25.002Z,8.30
2019-04-22T03:04:06.811Z,8.30
2019-04-22T03:06:24.687Z,8.30
2019-04-22T03:08:45.648Z,8.30
2019-04-22T03:11:19.188Z,8.30
2019-04-22T03:13:55.180Z,8.30
2019-04-22T03:18:54.976Z,8.40
2019-04-22T03:21:16.120Z,8.40
2019-04-22T03:26:21.876Z,8.40
2019-04-22T03:28:51.280Z,8.40
2019-04-22T03:39:40.187Z,8.70
2019-04-22T03:42:07.137Z,8.70
2019-04-22T03:47:01.941Z,8.50
2019-04-22T03:54:29.191Z,8.90
2019-04-22T03:57:17.708Z,9.00
2019-04-22T03:59:26.892Z,9.20
2019-04-22T04:01:56.181Z,9.10
2019-04-22T04:04:25.984Z,9.20
2019-04-22T04:07:01.758Z,9.20
2019-04-22T04:14:26.326Z,9.30
2019-04-22T04:17:02.154Z,9.30
2019-04-22T04:19:30.816Z,9.40
2019-04-22T04:21:48.802Z,9.30
2019-04-22T04:26:55.011Z,9.40
2019-04-22T04:29:35.661Z,9.40
2019-04-22T04:46:51.676Z,9.70
2019-04-22T04:49:18.191Z,9.40
2019-04-22T04:54:23.825Z,9.50
2019-04-22T04:56:44.514Z,9.60
2019-04-22T05:00:25.779Z,9.70
2019-04-22T05:01:44.940Z,9.80
2019-04-22T05:06:51.257Z,9.90
2019-04-22T05:11:53.963Z,10.00
2019-04-22T05:14:12.780Z,10.10
2019-04-22T05:16:48.179Z,10.30
2019-04-22T05:19:40.538Z,10.50
2019-04-22T05:22:25.651Z,10.60
2019-04-22T05:24:31.407Z,10.50
2019-04-22T05:27:11.303Z,10.80
2019-04-22T05:29:42.134Z,10.90
2019-04-22T05:31:56.899Z,10.90
2019-04-22T05:34:28.053Z,11.20
2019-04-22T05:37:02.000Z,11.50
2019-04-22T05:39:24.613Z,11.50
2019-04-22T05:42:07.535Z,11.60
2019-04-22T05:44:29.473Z,11.60
2019-04-22T05:46:52.800Z,11.60
2019-04-22T05:49:23.500Z,12.10
2019-04-22T05:51:55.246Z,11.70
2019-04-22T05:54:28.983Z,11.70
2019-04-22T05:56:51.365Z,11.80
2019-04-22T05:59:32.537Z,11.80
2019-04-22T06:02:02.876Z,11.90
2019-04-22T06:04:23.254Z,11.90
2019-04-22T06:06:54.089Z,12.00
2019-04-22T06:09:30.568Z,12.30
2019-04-22T06:11:55.450Z,12.80
2019-04-22T06:14:24.849Z,13.40
2019-04-22T06:16:58.738Z,13.90
2019-04-22T06:19:24.791Z,14.50
2019-04-22T06:21:57.958Z,14.90
2019-04-22T06:24:27.962Z,15.40
2019-04-22T06:27:10.239Z,15.80
2019-04-22T06:29:27.075Z,16.20
2019-04-22T06:32:22.305Z,16.60
2019-04-22T06:34:28.873Z,17.00
2019-04-22T06:37:07.613Z,17.30
2019-04-22T06:39:34.452Z,17.30
2019-04-22T06:42:01.093Z,17.10
2019-04-22T06:44:34.218Z,16.80
2019-04-22T06:46:56.484Z,16.70
2019-04-22T06:49:31.914Z,16.50
2019-04-22T06:52:02.493Z,16.50
2019-04-22T06:54:28.277Z,16.40
2019-04-22T06:59:26.582Z,16.30
2019-04-22T07:04:27.948Z,16.40
2019-04-22T07:07:02.932Z,16.50
2019-04-22T07:09:36.920Z,16.90
2019-04-22T07:12:06.367Z,17.20
2019-04-22T07:14:30.239Z,17.30
2019-04-22T07:17:02.203Z,17.20
2019-04-22T07:19:33.536Z,16.90
2019-04-22T07:22:09.576Z,16.70
2019-04-22T07:24:40.659Z,16.50
2019-04-22T07:27:08.625Z,16.20
2019-04-22T07:29:37.508Z,16.20
2019-04-22T07:32:01.562Z,15.90
2019-04-22T07:34:31.068Z,15.70
2019-04-22T07:37:13.072Z,15.70
2019-04-22T07:39:35.052Z,15.70
2019-04-22T07:42:10.636Z,15.60
2019-04-22T07:44:43.572Z,15.50
2019-04-22T07:47:13.888Z,15.40
2019-04-22T07:49:50.827Z,15.20
2019-04-22T07:52:15.999Z,15.00
2019-04-22T07:54:46.722Z,14.80
2019-04-22T07:57:23.742Z,14.70
2019-04-22T07:59:54.092Z,14.60
2019-04-22T08:02:26.626Z,14.50
2019-04-22T08:05:03.634Z,14.40
2019-04-22T08:07:17.831Z,14.20
2019-04-22T08:09:59.707Z,14.10
2019-04-22T08:12:20.306Z,14.00
2019-04-22T08:17:50.366Z,14.40
2019-04-22T08:19:55.973Z,13.90
2019-04-22T08:22:14.592Z,13.90
2019-04-22T08:27:17.904Z,14.20
2019-04-22T08:29:58.723Z,14.60
2019-04-22T08:32:22.418Z,14.90
2019-04-22T08:34:47.236Z,15.40
2019-04-22T08:39:53.446Z,16.10
2019-04-22T08:42:30.627Z,16.10
2019-04-22T08:45:09.603Z,16.10
2019-04-22T08:47:29.197Z,16.10
2019-04-22T08:49:57.010Z,16.00
2019-04-22T08:52:20.890Z,16.00
2019-04-22T08:54:53.663Z,15.90
2019-04-22T08:57:31.014Z,16.00
2019-04-22T08:59:50.173Z,16.00
2019-04-22T09:04:49.436Z,15.70
2019-04-22T09:07:31.779Z,15.30
2019-04-22T09:10:05.261Z,15.40
2019-04-22T09:12:26.407Z,15.60
2019-04-22T09:14:45.610Z,15.70
2019-04-22T09:17:21.364Z,16.00
2019-04-22T09:19:48.099Z,16.40
2019-04-22T09:22:26.334Z,16.80
2019-04-22T09:24:47.030Z,18.30
2019-04-22T09:29:43.110Z,25.30
2019-04-22T09:32:34.832Z,28.10
2019-04-22T09:34:58.911Z,30.00
2019-04-22T09:37:21.066Z,31.90
2019-04-22T09:39:50.808Z,33.50
2019-04-22T09:42:13.431Z,34.50
2019-04-22T09:44:59.236Z,35.30
2019-04-22T09:47:11.714Z,36.10
2019-04-22T09:49:51.866Z,36.80
2019-04-22T09:52:13.308Z,36.00
2019-04-22T09:54:51.019Z,34.70
2019-04-22T09:57:12.053Z,33.60
2019-04-22T09:59:43.760Z,33.90
2019-04-22T10:04:47.957Z,33.60
2019-04-22T10:07:20.019Z,33.80
2019-04-22T10:12:16.676Z,34.40
2019-04-22T10:14:48.017Z,34.60
2019-04-22T10:17:15.398Z,34.80
2019-04-22T10:19:41.066Z,35.40
2019-04-22T10:24:39.170Z,37.20
2019-04-22T10:27:07.221Z,36.40
2019-04-22T10:29:47.353Z,36.30
2019-04-22T10:32:08.531Z,36.60
2019-04-22T10:34:26.970Z,36.40
2019-04-22T10:36:52.772Z,36.60
2019-04-22T10:39:16.060Z,37.10
2019-04-22T10:41:44.304Z,37.50
2019-04-22T10:44:13.034Z,38.00
2019-04-22T10:46:42.298Z,38.90
2019-04-22T10:49:10.541Z,40.30
2019-04-22T10:51:38.005Z,41.50
2019-04-22T10:54:07.279Z,41.90
2019-04-22T10:56:35.180Z,41.90
2019-04-22T10:59:04.786Z,41.60
2019-04-22T11:01:38.429Z,42.20
2019-04-22T11:04:09.172Z,43.40
2019-04-22T11:06:41.015Z,43.90
2019-04-22T11:09:08.431Z,44.70
2019-04-22T11:11:46.717Z,44.10
2019-04-22T11:14:07.483Z,44.40
2019-04-22T11:16:39.565Z,44.70
2019-04-22T11:19:07.771Z,44.90
2019-04-22T11:21:36.000Z,44.40
2019-04-22T11:24:05.121Z,44.30
2019-04-22T11:26:34.636Z,44.20
2019-04-22T11:29:03.612Z,44.60
2019-04-22T11:31:32.418Z,44.10
2019-04-22T11:34:00.776Z,43.80
2019-04-22T11:36:30.714Z,43.70
2019-04-22T11:39:07.610Z,44.50
2019-04-22T11:41:36.150Z,44.50
2019-04-22T11:44:05.432Z,44.20
2019-04-22T11:46:36.196Z,44.80
2019-04-22T11:49:05.847Z,46.20
2019-04-22T11:51:33.908Z,47.90
2019-04-22T11:54:03.008Z,49.30
2019-04-22T11:56:31.364Z,48.10
2019-04-22T11:59:00.468Z,46.40
2019-04-22T12:01:30.802Z,44.60
2019-04-22T12:03:59.967Z,44.30
2019-04-22T12:06:28.212Z,45.40
2019-04-22T12:09:05.860Z,45.90
2019-04-22T12:11:34.570Z,45.90
2019-04-22T12:14:02.218Z,44.50
2019-04-22T12:16:31.649Z,44.60
2019-04-22T12:19:00.770Z,44.10
2019-04-22T12:21:29.026Z,44.20
2019-04-22T12:23:56.921Z,42.90
2019-04-22T12:26:25.465Z,42.40
2019-04-22T12:28:55.075Z,42.00
2019-04-22T12:31:23.780Z,42.20
2019-04-22T12:33:53.094Z,42.50
2019-04-22T12:36:22.497Z,41.40
2019-04-22T12:38:51.470Z,40.30
2019-04-22T12:41:19.768Z,38.20
2019-04-22T12:43:49.260Z,35.70
2019-04-22T12:46:18.539Z,33.20
2019-04-22T12:48:46.920Z,31.70
2019-04-22T12:51:15.356Z,30.10
2019-04-22T12:53:45.839Z,29.10
2019-04-22T12:56:12.692Z,28.00
2019-04-22T12:58:41.301Z,27.00
2019-04-22T13:01:10.776Z,26.10
2019-04-22T13:03:38.471Z,25.40
2019-04-22T13:06:08.011Z,24.90
2019-04-22T13:08:35.885Z,24.70
2019-04-22T13:11:10.360Z,24.70
2019-04-22T13:13:34.493Z,24.70
2019-04-22T13:16:03.037Z,24.70
2019-04-22T13:18:38.116Z,24.80
2019-04-22T13:21:00.390Z,24.50
2019-04-22T13:23:29.659Z,24.30
2019-04-22T13:25:58.861Z,23.90
2019-04-22T13:28:27.244Z,23.40
2019-04-22T13:30:54.901Z,23.20
2019-04-22T13:33:23.216Z,22.90
2019-04-22T13:35:52.129Z,22.50
2019-04-22T13:38:22.759Z,22.10
2019-04-22T13:41:02.191Z,22.00
2019-04-22T13:43:20.829Z,22.10
2019-04-22T13:45:49.790Z,22.20
2019-04-22T13:48:41.794Z,22.20
2019-04-22T13:51:18.607Z,22.10
2019-04-22T13:54:14.068Z,21.70
2019-04-22T13:56:07.679Z,21.60
2019-04-22T13:58:31.307Z,21.00
2019-04-22T14:00:46.679Z,20.70
2019-04-22T14:03:29.127Z,20.70
2019-04-22T14:05:58.409Z,20.70
2019-04-22T14:08:26.926Z,20.60
2019-04-22T14:10:54.514Z,20.60
2019-04-22T14:13:23.758Z,20.50
2019-04-22T14:15:52.833Z,20.50
2019-04-22T14:18:23.120Z,20.40
2019-04-22T14:20:51.795Z,20.20
2019-04-22T14:23:20.582Z,20.10
2019-04-22T14:25:48.507Z,20.00
2019-04-22T14:28:17.988Z,19.90
2019-04-22T14:30:46.395Z,19.90
2019-04-22T14:33:16.092Z,19.70
2019-04-22T14:35:44.045Z,19.70
2019-04-22T14:38:12.283Z,19.70
2019-04-22T14:40:41.453Z,20.10
2019-04-22T14:43:35.108Z,20.30
2019-04-22T14:46:15.465Z,20.50
2019-04-22T14:48:41.898Z,20.50
2019-04-22T14:51:00.971Z,20.30
2019-04-22T14:53:30.738Z,20.30
2019-04-22T14:55:42.352Z,20.20
2019-04-22T14:58:10.952Z,19.90
2019-04-22T15:00:40.104Z,19.70
2019-04-22T15:03:08.263Z,19.60
2019-04-22T15:05:36.518Z,19.40
2019-04-22T15:08:04.406Z,19.20
2019-04-22T15:10:31.938Z,19.10
2019-04-22T15:13:00.740Z,18.80
2019-04-22T15:15:56.575Z,18.70
2019-04-22T15:18:39.736Z,18.50
2019-04-22T15:21:11.050Z,18.50
2019-04-22T15:23:40.437Z,18.40
2019-04-22T15:26:08.613Z,18.20
2019-04-22T15:28:37.347Z,18.10
2019-04-22T15:31:05.762Z,18.00
2019-04-22T15:33:33.373Z,18.70
2019-04-22T15:36:01.482Z,17.80
2019-04-22T15:38:30.234Z,17.70
2019-04-22T15:40:58.661Z,17.60
2019-04-22T15:43:29.736Z,17.60
2019-04-22T15:45:58.689Z,17.50
2019-04-22T15:48:27.116Z,17.40
2019-04-22T15:50:55.012Z,17.30
2019-04-22T15:53:22.687Z,17.40
2019-04-22T15:55:50.451Z,17.20
2019-04-22T15:58:19.595Z,17.10
2019-04-22T16:00:57.674Z,17.00
2019-04-22T16:03:18.459Z,17.00
2019-04-22T16:05:46.245Z,16.90
2019-04-22T16:08:14.970Z,17.00
2019-04-22T16:10:43.862Z,16.80
2019-04-22T16:13:20.139Z,16.80
2019-04-22T16:15:42.703Z,16.70
2019-04-22T16:18:12.536Z,16.70
2019-04-22T16:20:40.511Z,16.60
2019-04-22T16:23:20.194Z,16.60
2019-04-22T16:26:24.365Z,16.50
2019-04-22T16:28:55.437Z,16.50
2019-04-22T16:31:21.838Z,16.40
2019-04-22T16:33:50.341Z,16.40
2019-04-22T16:36:18.611Z,16.40
2019-04-22T16:38:47.296Z,16.40
2019-04-22T16:41:15.136Z,16.40
2019-04-22T16:43:42.934Z,16.40
2019-04-22T16:46:11.700Z,16.40
2019-04-22T16:48:39.944Z,16.40
2019-04-22T16:51:09.766Z,16.30
2019-04-22T16:53:38.893Z,16.30
2019-04-22T16:56:06.885Z,16.30
2019-04-22T16:58:35.070Z,16.30
2019-04-22T17:01:06.987Z,16.80
2019-04-22T17:03:54.500Z,16.30
2019-04-22T17:06:35.681Z,16.40
2019-04-22T17:09:06.797Z,16.30
2019-04-22T17:11:35.964Z,16.30
2019-04-22T17:14:05.498Z,16.20
2019-04-22T17:16:34.521Z,16.10
2019-04-22T17:19:02.635Z,15.90
2019-04-22T17:21:31.766Z,15.90
2019-04-22T17:24:01.790Z,15.50
2019-04-22T17:26:30.484Z,15.30
2019-04-22T17:29:04.054Z,15.10
2019-04-22T17:31:31.003Z,14.90
2019-04-22T17:33:59.060Z,14.80
2019-04-22T17:36:26.783Z,14.70
2019-04-22T17:39:07.090Z,14.60
2019-04-22T17:41:38.650Z,14.50
2019-04-22T17:44:18.827Z,14.30
2019-04-22T17:46:54.822Z,14.20
2019-04-22T17:49:48.970Z,14.10
2019-04-22T17:52:21.216Z,14.00
2019-04-22T17:57:21.871Z,13.80
2019-04-22T17:59:47.002Z,13.70
2019-04-22T18:02:22.544Z,13.60
2019-04-22T18:04:46.341Z,13.50
2019-04-22T18:07:35.570Z,13.50
2019-04-22T18:10:21.011Z,13.40
2019-04-22T18:12:33.799Z,13.30
2019-04-22T18:14:59.582Z,12.90
2019-04-22T18:17:29.087Z,13.10
2019-04-22T18:19:51.979Z,13.00
2019-04-22T18:22:19.925Z,12.90
2019-04-22T18:24:50.120Z,12.80
2019-04-22T18:27:40.167Z,12.70
2019-04-22T18:29:55.472Z,12.60
2019-04-22T18:32:25.521Z,12.50
2019-04-22T18:34:55.487Z,12.50
2019-04-22T18:37:26.831Z,12.40
2019-04-22T18:40:03.293Z,12.30
2019-04-22T18:42:25.664Z,12.30
2019-04-22T18:45:21.689Z,12.20
2019-04-22T18:47:25.327Z,12.20
2019-04-22T18:49:56.634Z,12.10
2019-04-22T18:53:03.683Z,12.00
2019-04-22T18:55:55.524Z,12.00
2019-04-22T18:58:25.966Z,12.00
2019-04-22T19:00:41.990Z,11.90
2019-04-22T19:03:16.521Z,11.90
2019-04-22T19:06:11.806Z,11.80
2019-04-22T19:08:33.369Z,11.80
2019-04-22T19:11:10.061Z,11.70
2019-04-22T19:16:24.393Z,11.60
2019-04-22T19:21:07.805Z,11.30
2019-04-22T19:23:40.703Z,11.40
2019-04-22T19:26:13.824Z,11.40
2019-04-22T19:28:40.502Z,11.30
2019-04-22T19:31:13.764Z,11.10
2019-04-22T19:33:56.328Z,11.10
2019-04-22T19:36:11.070Z,11.10
2019-04-22T19:38:27.713Z,11.00
2019-04-22T19:43:32.362Z,10.80
2019-04-22T19:46:01.996Z,10.90
2019-04-22T19:48:42.832Z,10.80
2019-04-22T19:51:12.723Z,10.80
2019-04-22T19:53:35.658Z,10.70
2019-04-22T19:55:59.928Z,10.60
2019-04-22T19:58:32.661Z,10.60
2019-04-22T20:01:20.957Z,10.60
2019-04-22T20:06:49.118Z,10.50
2019-04-22T20:09:25.093Z,10.40
2019-04-22T20:11:49.508Z,10.40
2019-04-22T20:14:21.931Z,10.60
2019-04-22T20:16:46.607Z,10.50
2019-04-22T20:19:24.822Z,10.50
2019-04-22T20:21:51.791Z,10.50
2019-04-22T20:24:11.431Z,10.40
2019-04-22T20:26:58.191Z,10.40
2019-04-22T20:29:27.023Z,10.40
2019-04-22T20:31:53.119Z,10.30
2019-04-22T20:34:38.122Z,10.30
2019-04-22T20:39:10.941Z,10.20
2019-04-22T20:41:45.822Z,10.20
2019-04-22T20:44:26.072Z,10.10
2019-04-22T20:46:47.509Z,10.10
2019-04-22T20:49:20.007Z,10.10
2019-04-22T20:51:53.208Z,10.10
2019-04-22T20:54:18.060Z,10.10
2019-04-22T20:56:45.075Z,10.00
2019-04-22T20:59:16.242Z,10.00
2019-04-22T21:01:43.133Z,10.00
2019-04-22T21:03:59.857Z,9.90
2019-04-22T21:06:42.773Z,10.00
2019-04-22T21:09:18.531Z,9.90
2019-04-22T21:11:38.442Z,9.90
2019-04-22T21:14:12.249Z,9.90
2019-04-22T21:16:44.846Z,9.90
2019-04-22T21:19:21.564Z,9.90
2019-04-22T21:21:54.731Z,9.80
2019-04-22T21:24:09.233Z,9.80
2019-04-22T21:26:45.607Z,9.90
2019-04-22T21:29:12.631Z,9.70
2019-04-22T21:31:48.114Z,9.70
2019-04-22T21:34:10.265Z,9.60
2019-04-22T21:36:48.131Z,9.50
2019-04-22T21:39:15.566Z,9.50
2019-04-22T21:41:44.731Z,9.40
2019-04-22T21:44:16.587Z,9.40
2019-04-22T21:46:51.326Z,9.30
2019-04-22T21:49:12.907Z,9.30
2019-04-22T21:51:44.858Z,9.20
2019-04-22T21:54:15.436Z,9.20
2019-04-22T21:57:11.891Z,9.10
2019-04-22T21:59:32.104Z,9.10
2019-04-22T22:02:07.270Z,8.80
2019-04-22T22:04:29.194Z,9.00
2019-04-22T22:06:51.183Z,9.00
2019-04-22T22:09:31.150Z,8.90
2019-04-22T22:11:57.484Z,8.90
2019-04-22T22:14:28.973Z,8.80
2019-04-22T22:16:54.670Z,8.80
2019-04-22T22:19:28.377Z,8.70
2019-04-22T22:22:06.113Z,8.70
2019-04-22T22:24:35.169Z,8.70
2019-04-22T22:27:01.432Z,8.70
2019-04-22T22:29:43.313Z,8.70
2019-04-22T22:32:07.927Z,8.70
2019-04-22T22:34:29.625Z,8.60
2019-04-22T22:36:53.112Z,8.60
2019-04-22T22:39:23.760Z,8.50
2019-04-22T22:41:41.660Z,8.60
2019-04-22T22:44:18.473Z,8.50
2019-04-22T22:47:01.859Z,8.50
2019-04-22T22:49:33.072Z,8.50
2019-04-22T22:52:29.276Z,8.40
2019-04-22T22:54:33.059Z,8.40
2019-04-22T22:57:01.809Z,8.30
2019-04-22T22:59:29.930Z,8.40
2019-04-22T23:01:58.480Z,8.30
2019-04-22T23:04:32.832Z,8.30
2019-04-22T23:07:09.286Z,8.30
2019-04-22T23:09:28.974Z,8.20
2019-04-22T23:12:22.582Z,8.20
2019-04-22T23:14:34.679Z,8.10
2019-04-22T23:16:47.493Z,8.10
2019-04-22T23:19:09.404Z,7.90
2019-04-22T23:21:41.699Z,8.00
2019-04-22T23:24:29.434Z,8.00
2019-04-22T23:27:04.335Z,8.00
2019-04-22T23:30:02.034Z,7.90
2019-04-22T23:32:31.972Z,7.90
2019-04-22T23:35:24.237Z,7.80
2019-04-22T23:38:03.460Z,7.80
2019-04-22T23:43:00.296Z,7.70
2019-04-22T23:45:35.560Z,7.70
2019-04-22T23:47:49.534Z,7.70
2019-04-22T23:50:31.183Z,7.60
2019-04-22T23:53:00.671Z,7.60
2019-04-22T23:55:33.257Z,7.50
2019-04-22T23:58:02.592Z,7.50
